Time;durP1;ratioP1;P1;durP2;ratioP2;P2;SDS_P1;SDS_P2;PMS_P1;PMS_P2;Temp;Humidity;BMP_temperature;BMP_pressure;BME280_temperature;BME280_humidity;BME280_pressure;Samples;Min_cycle;Max_cycle;Signal;HPM_P1;HPM_P2
2023/06/14 00:01:48;;;;;;;5.82;2.72;;;15.80;92.90;;;;;;5074186;28;20119;-39
2023/06/14 00:04:16;;;;;;;8.48;2.97;;;15.80;93.00;;;;;;5074941;28;20050;-39
2023/06/14 00:06:44;;;;;;;5.28;2.80;;;15.80;93.00;;;;;;5056126;28;20500;-39
2023/06/14 00:09:12;;;;;;;4.05;2.47;;;15.80;93.00;;;;;;5074701;28;20109;-39
2023/06/14 00:11:39;;;;;;;8.75;2.67;;;15.80;93.00;;;;;;5072475;28;20645;-39
2023/06/14 00:14:05;;;;;;;6.07;2.80;;;15.80;93.10;;;;;;5074821;28;20462;-39
2023/06/14 00:16:32;;;;;;;5.47;2.80;;;15.80;93.10;;;;;;5074132;28;20044;-39
2023/06/14 00:18:58;;;;;;;4.82;2.30;;;15.70;93.20;;;;;;5074390;28;20040;-39
2023/06/14 00:21:24;;;;;;;4.72;2.40;;;15.70;93.20;;;;;;5073629;28;20456;-39
2023/06/14 00:23:49;;;;;;;7.40;3.17;;;15.70;93.20;;;;;;5072814;28;20048;-39
2023/06/14 00:26:15;;;;;;;5.20;2.55;;;15.60;93.20;;;;;;5074078;28;20040;-39
2023/06/14 00:28:41;;;;;;;5.85;2.80;;;15.60;93.70;;;;;;5075347;28;20092;-39
2023/06/14 00:31:06;;;;;;;7.47;2.65;;;15.60;93.30;;;;;;5073930;28;20047;-39
2023/06/14 00:33:32;;;;;;;5.45;2.30;;;15.60;93.50;;;;;;5074582;28;20070;-39
2023/06/14 00:35:57;;;;;;;6.15;2.55;;;15.50;93.50;;;;;;5073718;28;20538;-39
2023/06/14 00:38:23;;;;;;;4.47;2.80;;;15.50;93.60;;;;;;5063417;28;20101;-39
2023/06/14 00:40:49;;;;;;;6.30;2.42;;;15.50;93.80;;;;;;5067300;28;20032;-39
2023/06/14 00:43:14;;;;;;;4.68;2.55;;;15.40;93.70;;;;;;5073240;28;20055;-39
2023/06/14 00:45:40;;;;;;;7.20;3.30;;;15.40;93.70;;;;;;5073835;28;20048;-39
2023/06/14 00:48:07;;;;;;;8.80;3.00;;;15.40;94.00;;;;;;5074234;28;20048;-39
2023/06/14 00:50:33;;;;;;;5.10;2.72;;;15.30;94.10;;;;;;5074468;28;20059;-39
2023/06/14 00:53:02;;;;;;;5.80;2.58;;;15.20;94.20;;;;;;5073969;28;20036;-39
2023/06/14 00:55:28;;;;;;;5.03;2.58;;;15.20;94.60;;;;;;5073122;28;20036;-39
2023/06/14 00:57:55;;;;;;;5.00;3.33;;;15.10;94.50;;;;;;5073740;28;20601;-40
2023/06/14 01:00:21;;;;;;;3.63;2.53;;;15.10;94.70;;;;;;5073683;28;20052;-39
2023/06/14 01:02:47;;;;;;;5.55;2.67;;;15.00;94.80;;;;;;5071955;28;20048;-39
2023/06/14 01:05:13;;;;;;;7.35;2.90;;;14.90;95.00;;;;;;5072604;28;20067;-39
2023/06/14 01:07:42;;;;;;;4.75;2.70;;;14.80;95.10;;;;;;5074818;28;20044;-39
2023/06/14 01:10:23;;;;;;;4.93;2.90;;;14.80;95.40;;;;;;5074086;28;20044;-39
2023/06/14 01:13:03;;;;;;;5.55;2.60;;;14.70;95.60;;;;;;5073821;28;20036;-39
2023/06/14 01:15:31;;;;;;;5.63;2.88;;;14.70;95.40;;;;;;5073341;28;20051;-39
2023/06/14 01:18:02;;;;;;;6.72;2.60;;;14.70;95.80;;;;;;5074420;28;20488;-39
2023/06/14 01:20:30;;;;;;;4.55;2.70;;;14.60;95.60;;;;;;5072356;28;20052;-39
2023/06/14 01:22:56;;;;;;;5.05;2.20;;;14.60;96.10;;;;;;5071696;28;20052;-39
2023/06/14 01:25:23;;;;;;;3.80;2.88;;;14.60;96.30;;;;;;5072704;28;20059;-40
2023/06/14 01:27:51;;;;;;;4.88;2.60;;;14.60;96.30;;;;;;5072404;28;20123;-39
2023/06/14 01:30:17;;;;;;;5.25;2.63;;;14.60;96.20;;;;;;5073941;28;20567;-39
2023/06/14 01:32:44;;;;;;;4.68;2.60;;;14.60;96.30;;;;;;5073423;28;20044;-39
2023/06/14 01:35:10;;;;;;;6.95;2.70;;;14.60;96.40;;;;;;5073131;28;20379;-38
2023/06/14 01:37:37;;;;;;;4.80;2.75;;;14.60;96.50;;;;;;5062846;28;20040;-38
2023/06/14 01:40:06;;;;;;;5.75;2.53;;;14.50;96.70;;;;;;5071944;28;20051;-39
2023/06/14 01:42:35;;;;;;;4.72;2.67;;;14.50;96.80;;;;;;5096239;27;20048;-39
2023/06/14 01:45:03;;;;;;;5.97;2.70;;;14.50;97.00;;;;;;5109614;27;20484;-39
2023/06/14 01:47:30;;;;;;;7.32;2.67;;;14.50;97.10;;;;;;5076044;28;20516;-38
2023/06/14 01:49:55;;;;;;;5.53;2.70;;;14.50;97.00;;;;;;5077538;28;20044;-38
2023/06/14 01:52:22;;;;;;;5.78;2.70;;;14.50;97.10;;;;;;5076455;28;20739;-38
2023/06/14 01:54:49;;;;;;;5.00;2.53;;;14.50;97.90;;;;;;5077912;28;20123;-38
2023/06/14 01:57:15;;;;;;;5.20;2.70;;;14.50;97.50;;;;;;5077000;28;20052;-39
2023/06/14 01:59:41;;;;;;;7.97;3.00;;;14.50;97.80;;;;;;5078250;28;20043;-39
2023/06/14 02:02:06;;;;;;;3.35;2.60;;;14.40;98.00;;;;;;5067190;28;20048;-39
2023/06/14 02:04:32;;;;;;;6.15;2.47;;;14.40;98.00;;;;;;5075211;28;20032;-43
2023/06/14 02:06:58;;;;;;;6.70;2.85;;;14.40;98.20;;;;;;5074269;28;20048;-39
2023/06/14 02:09:23;;;;;;;4.25;2.60;;;14.40;98.30;;;;;;5076903;28;20040;-39
2023/06/14 02:11:49;;;;;;;7.20;2.63;;;14.30;98.30;;;;;;5074515;28;20086;-39
2023/06/14 02:14:16;;;;;;;7.03;3.17;;;14.30;98.90;;;;;;5077210;28;20131;-39
2023/06/14 02:16:48;;;;;;;5.22;2.83;;;14.30;98.70;;;;;;5077101;28;20337;-39
2023/06/14 02:19:16;;;;;;;4.97;3.00;;;14.30;98.70;;;;;;5078451;28;20059;-39
2023/06/14 02:21:42;;;;;;;4.38;2.63;;;14.20;99.20;;;;;;5057912;28;20145;-39
2023/06/14 02:24:08;;;;;;;4.50;2.95;;;14.20;99.30;;;;;;5075289;28;20461;-39
2023/06/14 02:26:34;;;;;;;7.32;3.08;;;14.20;99.40;;;;;;5075619;28;20051;-39
2023/06/14 02:28:59;;;;;;;4.28;2.88;;;14.20;99.90;;;;;;5076724;28;20052;-38
2023/06/14 02:31:25;;;;;;;5.32;2.50;;;14.20;99.80;;;;;;5076078;28;20086;-38
2023/06/14 02:33:51;;;;;;;4.00;2.60;;;14.20;99.90;;;;;;5075781;28;20403;-39
2023/06/14 02:36:17;;;;;;;4.30;2.97;;;14.10;99.90;;;;;;5073500;28;20537;-39
2023/06/14 02:38:42;;;;;;;6.75;2.60;;;14.10;99.90;;;;;;5066598;28;20036;-38
2023/06/14 02:41:08;;;;;;;7.78;2.92;;;14.10;99.90;;;;;;5071896;28;20032;-39
2023/06/14 02:43:33;;;;;;;3.15;2.50;;;14.00;99.90;;;;;;5073628;28;20490;-38
2023/06/14 02:45:59;;;;;;;4.43;2.72;;;14.00;99.90;;;;;;5074108;28;20553;-39
2023/06/14 02:48:25;;;;;;;5.28;2.65;;;14.00;99.90;;;;;;5076475;28;20047;-38
2023/06/14 02:50:51;;;;;;;7.20;2.88;;;14.00;99.90;;;;;;5074162;28;20067;-39
2023/06/14 02:53:17;;;;;;;6.13;3.22;;;14.00;99.90;;;;;;5075663;28;20048;-39
2023/06/14 02:55:42;;;;;;;5.18;2.72;;;13.90;99.90;;;;;;5074588;28;20059;-38
2023/06/14 02:58:08;;;;;;;6.65;2.70;;;13.90;99.90;;;;;;5074282;28;20086;-38
2023/06/14 03:00:35;;;;;;;4.22;2.42;;;13.90;99.90;;;;;;5075915;28;20040;-38
2023/06/14 03:03:02;;;;;;;7.10;3.08;;;13.90;99.90;;;;;;5075538;28;20095;-39
2023/06/14 03:05:28;;;;;;;4.90;3.17;;;13.90;99.90;;;;;;5074778;28;20044;-38
2023/06/14 03:07:54;;;;;;;4.93;3.15;;;13.80;99.90;;;;;;5076041;28;20044;-38
2023/06/14 03:10:22;;;;;;;5.13;2.72;;;13.80;99.90;;;;;;5074567;28;20507;-38
2023/06/14 03:12:47;;;;;;;6.90;3.33;;;13.80;99.90;;;;;;5075881;28;20452;-38
2023/06/14 03:15:13;;;;;;;6.43;3.40;;;13.80;99.90;;;;;;5076026;28;20044;-38
2023/06/14 03:17:39;;;;;;;5.53;3.08;;;13.80;99.90;;;;;;5074897;28;20049;-38
2023/06/14 03:20:05;;;;;;;5.20;3.40;;;13.80;99.90;;;;;;5075534;28;20109;-39
2023/06/14 03:22:34;;;;;;;7.10;3.63;;;13.80;99.90;;;;;;5074895;28;20043;-38
2023/06/14 03:25:00;;;;;;;4.25;2.70;;;13.80;99.90;;;;;;5074942;28;20044;-38
2023/06/14 03:27:28;;;;;;;4.53;3.20;;;13.80;99.90;;;;;;5075856;28;20479;-39
2023/06/14 03:29:54;;;;;;;5.20;3.63;;;13.80;99.90;;;;;;5075842;28;20442;-38
2023/06/14 03:32:19;;;;;;;3.97;2.83;;;13.80;99.90;;;;;;5073490;28;20100;-39
2023/06/14 03:34:46;;;;;;;5.35;3.03;;;13.80;99.90;;;;;;5075167;28;20052;-38
2023/06/14 03:37:12;;;;;;;6.25;3.28;;;13.80;99.90;;;;;;5067069;28;20044;-39
2023/06/14 03:39:45;;;;;;;5.15;3.30;;;13.90;99.90;;;;;;5069203;28;20496;-39
2023/06/14 03:42:12;;;;;;;7.13;3.42;;;13.90;99.90;;;;;;5074178;28;20048;-39
2023/06/14 03:44:38;;;;;;;7.25;2.90;;;14.10;99.90;;;;;;5073828;28;20062;-39
2023/06/14 03:47:04;;;;;;;5.93;3.42;;;14.50;99.90;;;;;;5075127;28;20593;-39
2023/06/14 03:49:30;;;;;;;5.53;3.10;;;15.00;99.90;;;;;;5074991;28;20048;-39
2023/06/14 03:51:56;;;;;;;8.32;3.30;;;15.80;99.90;;;;;;5074862;28;20121;-39
2023/06/14 03:54:21;;;;;;;6.90;3.50;;;16.50;99.90;;;;;;5073792;28;20527;-39
2023/06/14 03:56:47;;;;;;;7.00;3.38;;;17.20;99.90;;;;;;5074763;28;20395;-39
2023/06/14 03:59:13;;;;;;;6.13;3.17;;;17.80;99.90;;;;;;5073351;28;20067;-39
2023/06/14 04:01:45;;;;;;;5.78;3.05;;;18.30;99.10;;;;;;5071231;28;20086;-39
2023/06/14 04:04:11;;;;;;;7.00;3.25;;;19.00;98.10;;;;;;5073755;28;20399;-39
2023/06/14 04:06:37;;;;;;;5.63;3.17;;;19.40;96.60;;;;;;5071986;28;20048;-39
2023/06/14 04:09:04;;;;;;;5.30;3.55;;;20.00;96.30;;;;;;5073648;28;20147;-39
2023/06/14 04:11:31;;;;;;;8.40;2.92;;;20.30;95.30;;;;;;5074367;28;20073;-39
2023/06/14 04:13:56;;;;;;;5.93;3.00;;;20.80;94.50;;;;;;5074769;28;20052;-39
2023/06/14 04:16:22;;;;;;;7.10;3.05;;;21.20;94.10;;;;;;5073512;28;20043;-40
2023/06/14 04:18:51;;;;;;;7.22;3.03;;;21.40;93.70;;;;;;5074292;28;20122;-40
2023/06/14 04:21:17;;;;;;;9.10;4.35;;;21.80;93.10;;;;;;5072516;28;20488;-39
2023/06/14 04:23:43;;;;;;;3.83;2.83;;;22.00;92.50;;;;;;5075069;28;20040;-40
2023/06/14 04:26:10;;;;;;;4.30;3.63;;;22.40;92.00;;;;;;5072827;28;20048;-40
2023/06/14 04:28:40;;;;;;;4.90;3.22;;;22.70;91.80;;;;;;5074315;28;20044;-40
2023/06/14 04:31:08;;;;;;;5.80;3.55;;;23.20;91.50;;;;;;5074008;28;20055;-40
2023/06/14 04:33:42;;;;;;;5.43;3.15;;;23.60;90.90;;;;;;5074783;28;20044;-40
2023/06/14 04:36:11;;;;;;;8.85;3.70;;;23.90;90.20;;;;;;5073814;28;20055;-40
2023/06/14 04:38:37;;;;;;;4.00;2.88;;;24.10;90.00;;;;;;5062480;28;20051;-40
2023/06/14 04:41:03;;;;;;;7.32;3.65;;;24.50;89.10;;;;;;5066867;28;20043;-40
2023/06/14 04:43:28;;;;;;;7.15;3.42;;;24.50;87.60;;;;;;5073387;28;20047;-40
2023/06/14 04:45:56;;;;;;;6.50;3.15;;;24.80;87.80;;;;;;5073615;28;20047;-40
2023/06/14 04:48:22;;;;;;;6.78;4.40;;;25.10;87.20;;;;;;5074367;28;20399;-40
2023/06/14 04:50:48;;;;;;;7.95;3.67;;;25.10;86.30;;;;;;5073929;28;20048;-40
2023/06/14 04:53:13;;;;;;;6.75;3.55;;;25.30;86.20;;;;;;5073778;28;20062;-41
2023/06/14 04:55:39;;;;;;;7.57;3.22;;;25.50;85.00;;;;;;5073051;28;20079;-40
2023/06/14 04:58:05;;;;;;;6.20;3.20;;;25.60;85.00;;;;;;5074683;28;20058;-41
2023/06/14 05:00:31;;;;;;;6.43;3.67;;;25.60;84.20;;;;;;5072628;28;20052;-41
2023/06/14 05:02:57;;;;;;;5.93;3.63;;;25.60;83.40;;;;;;5074160;28;20044;-40
2023/06/14 05:05:24;;;;;;;5.72;3.63;;;25.60;83.70;;;;;;5072676;28;20071;-40
2023/06/14 05:07:49;;;;;;;6.70;3.38;;;25.90;83.60;;;;;;5074233;28;20405;-39
2023/06/14 05:10:15;;;;;;;5.80;3.20;;;26.20;82.90;;;;;;5073564;28;20044;-41
2023/06/14 05:12:43;;;;;;;5.18;3.97;;;26.40;82.70;;;;;;5072895;28;20051;-41
2023/06/14 05:15:10;;;;;;;7.95;3.13;;;27.00;80.90;;;;;;5073211;28;20040;-41
2023/06/14 05:17:36;;;;;;;5.22;3.60;;;26.90;80.30;;;;;;5073918;28;20047;-41
2023/06/14 05:20:02;;;;;;;5.60;3.67;;;26.90;79.80;;;;;;5074151;28;20044;-41
2023/06/14 05:22:28;;;;;;;6.85;3.40;;;27.30;80.10;;;;;;5073517;28;20082;-41
2023/06/14 05:24:53;;;;;;;6.35;3.17;;;27.50;79.50;;;;;;5073269;28;20048;-41
2023/06/14 05:27:19;;;;;;;7.72;3.65;;;27.50;79.40;;;;;;5073869;28;20437;-39
2023/06/14 05:29:45;;;;;;;6.00;3.33;;;27.90;79.00;;;;;;5073002;28;20602;-40
2023/06/14 05:32:10;;;;;;;5.10;3.50;;;28.30;78.50;;;;;;5073528;28;20389;-39
2023/06/14 05:34:36;;;;;;;5.72;3.50;;;28.50;77.20;;;;;;5073613;28;20875;-39
2023/06/14 05:37:03;;;;;;;6.72;3.72;;;28.70;77.20;;;;;;5067190;28;20083;-43
2023/06/14 05:39:29;;;;;;;6.63;3.67;;;28.50;77.00;;;;;;5063387;28;20147;-40
2023/06/14 05:41:55;;;;;;;4.75;3.75;;;29.00;76.30;;;;;;5073344;28;20114;-39
2023/06/14 05:44:21;;;;;;;5.40;3.72;;;28.90;76.10;;;;;;5072458;28;20064;-41
2023/06/14 05:46:46;;;;;;;6.43;3.65;;;29.00;76.10;;;;;;5073218;28;20040;-39
2023/06/14 05:49:12;;;;;;;6.05;3.72;;;28.70;75.60;;;;;;5074295;28;20036;-39
2023/06/14 05:51:38;;;;;;;4.97;3.47;;;28.90;75.80;;;;;;5073272;28;20161;-39
2023/06/14 05:54:03;;;;;;;7.55;3.75;;;29.00;75.20;;;;;;5073926;28;20483;-40
2023/06/14 05:56:29;;;;;;;8.18;4.03;;;29.20;75.00;;;;;;5072617;28;20044;-39
2023/06/14 05:58:55;;;;;;;7.70;3.67;;;29.30;74.60;;;;;;5073553;28;20474;-40
2023/06/14 06:01:21;;;;;;;8.05;3.38;;;29.20;74.30;;;;;;5072774;28;20949;-39
2023/06/14 06:03:47;;;;;;;4.47;3.28;;;29.10;74.60;;;;;;5072722;28;20365;-40
2023/06/14 06:06:13;;;;;;;5.82;3.75;;;29.70;74.40;;;;;;5072283;28;20040;-39
2023/06/14 06:08:40;;;;;;;6.88;3.95;;;29.90;72.60;;;;;;5072482;28;20048;-39
2023/06/14 06:11:06;;;;;;;7.00;3.85;;;30.10;73.20;;;;;;5073544;28;20070;-40
2023/06/14 06:13:32;;;;;;;8.75;4.32;;;30.10;72.70;;;;;;5074050;28;20032;-41
2023/06/14 06:15:58;;;;;;;7.13;3.97;;;30.70;73.90;;;;;;5073701;28;20439;-40
2023/06/14 06:18:23;;;;;;;7.03;3.45;;;31.50;72.60;;;;;;5073390;28;20032;-40
2023/06/14 06:20:49;;;;;;;9.60;3.47;;;31.20;70.50;;;;;;5073338;28;20305;-41
2023/06/14 06:23:15;;;;;;;5.88;3.10;;;31.10;70.80;;;;;;5073454;28;20486;-40
2023/06/14 06:25:42;;;;;;;5.07;3.55;;;31.50;71.30;;;;;;5073795;28;20062;-39
2023/06/14 06:28:07;;;;;;;5.25;3.38;;;32.10;71.00;;;;;;5077545;28;20297;-39
2023/06/14 06:30:33;;;;;;;3.60;3.25;;;32.20;69.80;;;;;;5076600;28;20036;-40
2023/06/14 06:32:59;;;;;;;6.15;3.00;;;32.00;69.00;;;;;;5077085;28;20511;-40
2023/06/14 06:35:25;;;;;;;6.18;3.30;;;32.20;69.20;;;;;;5076379;28;20538;-41
2023/06/14 06:37:51;;;;;;;6.35;3.53;;;32.10;68.80;;;;;;5066501;28;20051;-40
2023/06/14 06:40:16;;;;;;;4.65;3.08;;;32.10;69.20;;;;;;5070048;28;20560;-40
2023/06/14 06:42:42;;;;;;;5.13;3.35;;;32.50;68.20;;;;;;5076081;28;20047;-41
2023/06/14 06:45:08;;;;;;;5.72;3.80;;;31.90;68.20;;;;;;5076834;28;20477;-40
2023/06/14 06:47:33;;;;;;;6.95;3.53;;;31.70;67.90;;;;;;5076595;28;20101;-40
2023/06/14 06:49:59;;;;;;;5.20;3.38;;;31.80;69.20;;;;;;5076611;28;20388;-40
2023/06/14 06:52:25;;;;;;;5.78;3.00;;;32.20;69.30;;;;;;5075880;28;20040;-40
2023/06/14 06:54:54;;;;;;;4.70;3.13;;;32.40;68.90;;;;;;5075890;28;20079;-41
2023/06/14 06:57:24;;;;;;;5.55;3.40;;;32.50;67.90;;;;;;5075124;28;20055;-41
2023/06/14 06:59:50;;;;;;;5.65;3.55;;;32.50;67.90;;;;;;5077389;28;20048;-41
2023/06/14 07:02:16;;;;;;;5.47;3.60;;;32.50;68.00;;;;;;5076475;28;20044;-40
2023/06/14 07:04:42;;;;;;;5.45;3.05;;;32.40;67.70;;;;;;5075626;28;20161;-41
2023/06/14 07:07:09;;;;;;;5.15;2.97;;;32.70;68.00;;;;;;5075284;28;20119;-41
2023/06/14 07:09:35;;;;;;;11.55;3.28;;;32.00;67.30;;;;;;5075678;28;20455;-40
2023/06/14 07:12:01;;;;;;;4.22;3.10;;;32.20;67.00;;;;;;5074737;28;20036;-43
2023/06/14 07:14:26;;;;;;;5.40;3.08;;;31.70;67.30;;;;;;5073587;28;20095;-41
2023/06/14 07:16:52;;;;;;;4.95;2.97;;;31.60;67.10;;;;;;5057506;28;20079;-40
2023/06/14 07:19:18;;;;;;;5.22;2.75;;;31.70;67.60;;;;;;5076089;28;20044;-40
2023/06/14 07:21:43;;;;;;;4.55;2.78;;;31.70;67.80;;;;;;5075470;28;20040;-41
2023/06/14 07:24:09;;;;;;;5.70;2.72;;;31.10;67.90;;;;;;5076683;28;20044;-41
2023/06/14 07:26:35;;;;;;;3.72;2.60;;;30.90;68.70;;;;;;5073582;28;20486;-40
2023/06/14 07:29:01;;;;;;;6.90;2.95;;;30.10;68.40;;;;;;5075889;28;20044;-41
2023/06/14 07:31:27;;;;;;;3.38;2.95;;;28.80;69.30;;;;;;5074827;28;20545;-40
2023/06/14 07:33:52;;;;;;;3.15;2.83;;;28.10;70.00;;;;;;5075663;28;20044;-41
2023/06/14 07:36:18;;;;;;;5.68;3.33;;;27.50;71.00;;;;;;5072434;28;20079;-40
2023/06/14 07:38:44;;;;;;;5.20;3.20;;;27.00;71.70;;;;;;5065939;28;20073;-40
2023/06/14 07:41:10;;;;;;;4.28;2.92;;;26.80;72.20;;;;;;5072544;28;20040;-40
2023/06/14 07:43:36;;;;;;;5.43;2.67;;;26.70;72.60;;;;;;5073329;28;20544;-41
2023/06/14 07:46:02;;;;;;;5.13;3.13;;;26.40;72.70;;;;;;5075081;28;20039;-41
2023/06/14 07:48:28;;;;;;;4.28;2.63;;;26.30;72.20;;;;;;5075337;28;20048;-40
2023/06/14 07:50:53;;;;;;;5.03;2.67;;;26.20;73.30;;;;;;5075265;28;20094;-40
2023/06/14 07:53:19;;;;;;;5.88;3.08;;;26.20;73.60;;;;;;5075271;28;20115;-40
2023/06/14 07:55:47;;;;;;;6.50;2.92;;;26.20;74.20;;;;;;5075694;28;20560;-40
2023/06/14 07:58:12;;;;;;;3.70;2.92;;;26.30;73.50;;;;;;5074328;28;20098;-40
2023/06/14 08:00:38;;;;;;;4.57;3.22;;;26.20;73.90;;;;;;5075604;28;20127;-40
2023/06/14 08:03:04;;;;;;;5.28;3.25;;;26.20;75.00;;;;;;5074420;28;20086;-40
2023/06/14 08:05:29;;;;;;;3.30;2.60;;;26.30;75.20;;;;;;5074071;28;20044;-40
2023/06/14 08:07:55;;;;;;;7.90;3.55;;;26.20;73.80;;;;;;5074320;28;20040;-40
2023/06/14 08:10:22;;;;;;;8.43;3.65;;;26.00;74.30;;;;;;5071960;28;20415;-40
2023/06/14 08:12:49;;;;;;;6.72;3.47;;;25.50;75.10;;;;;;5075038;28;20151;-41
2023/06/14 08:15:16;;;;;;;5.47;3.35;;;25.30;74.70;;;;;;5075030;28;20289;-40
2023/06/14 08:17:45;;;;;;;6.28;2.72;;;25.10;75.50;;;;;;5074040;28;20128;-40
2023/06/14 08:20:12;;;;;;;5.60;3.42;;;24.90;76.70;;;;;;5074248;28;20054;-40
2023/06/14 08:22:39;;;;;;;4.80;3.30;;;24.90;75.90;;;;;;5075557;28;20490;-40
2023/06/14 08:25:06;;;;;;;8.20;3.25;;;24.90;75.80;;;;;;5074699;28;20075;-42
2023/06/14 08:27:31;;;;;;;5.38;2.83;;;25.00;76.50;;;;;;5075122;28;20124;-40
2023/06/14 08:29:57;;;;;;;4.60;3.13;;;25.10;77.10;;;;;;5074507;28;20123;-41
2023/06/14 08:32:23;;;;;;;4.72;2.72;;;25.10;75.70;;;;;;5074961;28;20052;-40
2023/06/14 08:34:49;;;;;;;3.42;2.65;;;25.00;76.10;;;;;;5074197;28;20047;-40
2023/06/14 08:37:14;;;;;;;5.05;2.85;;;25.00;75.20;;;;;;5066192;28;20044;-40
2023/06/14 08:39:41;;;;;;;4.07;2.83;;;24.80;75.00;;;;;;5067390;28;20032;-41
2023/06/14 08:42:08;;;;;;;4.97;3.10;;;24.70;75.90;;;;;;5073554;28;20378;-40
2023/06/14 08:44:34;;;;;;;3.38;2.40;;;24.80;76.40;;;;;;5072302;28;20157;-40
2023/06/14 08:47:00;;;;;;;6.43;2.97;;;24.90;77.30;;;;;;5107314;27;20051;-40
2023/06/14 08:49:26;;;;;;;5.70;2.53;;;24.80;75.50;;;;;;5073884;28;20321;-40
2023/06/14 08:52:00;;;;;;;4.65;3.05;;;24.70;75.40;;;;;;5089552;28;20317;-40
2023/06/14 08:54:30;;;;;;;5.07;3.15;;;24.70;76.50;;;;;;5074080;28;20071;-40
2023/06/14 08:56:57;;;;;;;4.55;3.03;;;24.60;76.40;;;;;;5074370;28;20385;-40
2023/06/14 08:59:31;;;;;;;5.32;3.33;;;24.80;77.70;;;;;;5073915;28;20044;-40
2023/06/14 09:01:57;;;;;;;4.53;2.40;;;24.80;76.60;;;;;;5073542;28;20495;-40
2023/06/14 09:04:25;;;;;;;3.13;2.83;;;24.80;75.70;;;;;;5073609;28;20048;-40
2023/06/14 09:06:52;;;;;;;6.55;3.08;;;24.70;75.60;;;;;;5073935;28;20050;-41
2023/06/14 09:09:22;;;;;;;2.65;2.35;;;24.60;75.40;;;;;;5073610;28;20040;-40
2023/06/14 09:11:50;;;;;;;4.32;2.45;;;24.60;76.30;;;;;;5071876;28;20502;-40
2023/06/14 09:14:16;;;;;;;5.38;2.85;;;24.70;76.40;;;;;;5071835;28;20143;-41
2023/06/14 09:16:41;;;;;;;5.25;2.80;;;24.80;75.60;;;;;;5074481;28;20043;-40
2023/06/14 09:19:08;;;;;;;5.18;2.70;;;24.70;75.90;;;;;;5073830;28;20040;-40
2023/06/14 09:21:37;;;;;;;4.00;3.15;;;24.70;75.30;;;;;;5072930;28;20434;-40
2023/06/14 09:24:04;;;;;;;5.97;2.85;;;24.60;75.50;;;;;;5073968;28;20036;-40
2023/06/14 09:26:31;;;;;;;4.50;2.97;;;24.60;75.10;;;;;;5073688;28;20048;-40
2023/06/14 09:28:57;;;;;;;8.27;2.55;;;24.40;76.00;;;;;;5072872;28;20052;-40
2023/06/14 09:31:23;;;;;;;5.55;2.80;;;24.40;75.40;;;;;;5073203;28;20047;-40
2023/06/14 09:33:50;;;;;;;5.80;3.05;;;24.40;75.30;;;;;;5074350;28;20040;-40
2023/06/14 09:36:23;;;;;;;4.65;2.53;;;24.40;75.80;;;;;;5071070;28;20055;-41
2023/06/14 09:38:57;;;;;;;3.45;2.65;;;24.40;75.00;;;;;;5063104;28;20043;-41
2023/06/14 09:41:40;;;;;;;6.40;2.60;;;24.50;75.50;;;;;;5070966;28;20040;-40
2023/06/14 09:44:07;;;;;;;4.10;2.47;;;24.50;74.90;;;;;;5071094;28;20055;-41
2023/06/14 09:46:33;;;;;;;4.78;2.97;;;24.50;73.60;;;;;;5073517;28;20623;-40
2023/06/14 09:49:00;;;;;;;6.95;3.05;;;24.30;74.50;;;;;;5074143;28;20434;-40
2023/06/14 09:51:27;;;;;;;6.82;2.47;;;24.30;74.50;;;;;;5073625;28;20047;-40
2023/06/14 09:53:58;;;;;;;6.03;2.38;;;24.20;75.10;;;;;;5074058;28;20443;-40
2023/06/14 09:56:37;;;;;;;5.88;2.72;;;24.20;74.90;;;;;;5073334;28;20496;-40
2023/06/14 09:59:08;;;;;;;4.28;2.58;;;24.30;75.10;;;;;;5073953;28;20346;-41
2023/06/14 10:01:41;;;;;;;5.82;2.53;;;24.50;76.00;;;;;;5075848;28;20052;-40
2023/06/14 10:04:08;;;;;;;5.35;3.10;;;24.50;76.00;;;;;;5077532;28;20148;-40
2023/06/14 10:06:37;;;;;;;5.53;2.90;;;24.60;76.60;;;;;;5077803;28;20054;-40
2023/06/14 10:09:07;;;;;;;5.30;3.08;;;24.70;77.10;;;;;;5077606;28;20537;-40
2023/06/14 10:11:33;;;;;;;6.65;2.58;;;24.60;73.50;;;;;;5076886;28;20037;-40
2023/06/14 10:13:59;;;;;;;6.10;2.67;;;24.40;74.50;;;;;;5077980;28;20058;-40
2023/06/14 10:16:36;;;;;;;6.80;3.30;;;24.40;75.10;;;;;;5077534;28;20051;-40
2023/06/14 10:19:08;;;;;;;4.45;2.65;;;24.40;75.40;;;;;;5077613;28;20104;-41
2023/06/14 10:22:06;;;;;;;6.90;2.67;;;24.40;75.90;;;;;;5076786;28;20152;-40
2023/06/14 10:24:44;;;;;;;4.05;2.88;;;24.50;76.00;;;;;;5019410;28;20133;-40
2023/06/14 10:27:11;;;;;;;3.72;2.53;;;24.60;76.40;;;;;;5034063;28;20057;-40
2023/06/14 10:29:58;;;;;;;8.40;2.67;;;24.70;76.50;;;;;;5006593;28;20164;-40
2023/06/14 10:32:28;;;;;;;7.25;2.40;;;24.80;75.40;;;;;;5033265;28;20048;-40
2023/06/14 10:34:57;;;;;;;6.60;2.75;;;24.80;74.60;;;;;;5032854;28;20072;-40
2023/06/14 10:37:24;;;;;;;4.43;2.45;;;24.60;73.70;;;;;;5006078;28;20378;-40
2023/06/14 10:39:50;;;;;;;5.15;2.60;;;24.70;74.40;;;;;;5020129;28;20399;-40
2023/06/14 10:42:16;;;;;;;6.03;2.60;;;24.60;74.80;;;;;;4997061;28;20120;-40
2023/06/14 10:44:49;;;;;;;11.52;3.80;;;24.60;77.00;;;;;;5013183;28;20534;-39
2023/06/14 10:47:24;;;;;;;3.58;2.17;;;24.70;76.80;;;;;;5014163;28;20417;-39
2023/06/14 10:49:52;;;;;;;6.90;2.60;;;24.60;74.40;;;;;;5013261;28;20049;-39
2023/06/14 10:52:23;;;;;;;4.55;2.20;;;24.60;74.50;;;;;;5011113;28;20059;-39
2023/06/14 10:55:22;;;;;;;5.05;2.58;;;24.70;74.50;;;;;;4999728;28;20064;-40
2023/06/14 10:57:55;;;;;;;5.47;2.72;;;24.90;74.80;;;;;;5032966;28;20041;-41
2023/06/14 11:00:24;;;;;;;6.13;2.70;;;24.90;75.60;;;;;;5056330;28;20095;-40
2023/06/14 11:03:13;;;;;;;4.30;2.92;;;24.90;76.90;;;;;;5075589;28;20040;-40
2023/06/14 11:05:47;;;;;;;5.75;2.88;;;25.00;76.40;;;;;;5074975;28;20184;-40
2023/06/14 11:08:44;;;;;;;4.97;2.83;;;24.90;74.70;;;;;;5058383;28;20055;-40
2023/06/14 11:11:12;;;;;;;7.80;2.95;;;24.90;75.00;;;;;;5074863;28;20127;-40
2023/06/14 11:13:44;;;;;;;7.68;2.72;;;24.90;74.20;;;;;;5075565;28;20052;-40
2023/06/14 11:16:18;;;;;;;5.85;3.13;;;24.90;75.40;;;;;;5075416;28;20143;-40
2023/06/14 11:18:45;;;;;;;9.75;2.65;;;24.90;75.30;;;;;;5076137;28;20044;-40
2023/06/14 11:21:11;;;;;;;6.65;3.13;;;24.80;75.50;;;;;;5075119;28;20055;-40
2023/06/14 11:23:36;;;;;;;3.65;2.40;;;24.90;75.30;;;;;;5075092;28;20052;-41
2023/06/14 11:26:04;;;;;;;4.13;2.10;;;24.80;74.90;;;;;;5075492;28;20040;-40
2023/06/14 11:28:37;;;;;;;5.55;2.70;;;24.90;73.90;;;;;;5075924;28;20052;-40
2023/06/14 11:31:04;;;;;;;4.10;2.40;;;25.00;75.10;;;;;;5075710;28;20463;-40
2023/06/14 11:33:30;;;;;;;6.65;2.58;;;25.00;74.30;;;;;;5075714;28;20074;-40
2023/06/14 11:35:55;;;;;;;5.25;2.75;;;24.90;75.10;;;;;;5073886;28;20048;-41
2023/06/14 11:38:21;;;;;;;5.03;2.47;;;24.80;74.60;;;;;;5064692;28;20097;-40
2023/06/14 11:40:47;;;;;;;6.28;2.55;;;24.70;75.30;;;;;;5069610;28;20035;-41
2023/06/14 11:43:14;;;;;;;5.05;2.97;;;24.70;74.70;;;;;;5073477;28;20048;-40
2023/06/14 11:45:39;;;;;;;4.03;2.50;;;24.70;75.50;;;;;;5074119;28;20052;-41
2023/06/14 11:48:06;;;;;;;4.53;2.80;;;24.80;76.50;;;;;;5075650;28;20465;-40
2023/06/14 11:50:33;;;;;;;6.75;2.67;;;24.90;76.20;;;;;;5074388;28;20370;-40
2023/06/14 11:53:07;;;;;;;3.33;2.22;;;25.10;76.70;;;;;;5075761;28;20048;-40
2023/06/14 11:55:37;;;;;;;4.40;2.60;;;25.10;74.50;;;;;;5073583;28;20058;-40
2023/06/14 11:58:04;;;;;;;5.38;2.25;;;25.10;76.00;;;;;;5075652;28;20071;-40
2023/06/14 12:00:30;;;;;;;3.20;2.05;;;25.10;74.60;;;;;;5074619;28;20495;-40
2023/06/14 12:02:57;;;;;;;5.65;2.10;;;25.00;74.10;;;;;;5075027;28;20093;-40
2023/06/14 12:05:23;;;;;;;5.70;2.15;;;24.90;74.10;;;;;;5074903;28;20054;-41
2023/06/14 12:07:50;;;;;;;3.65;2.10;;;24.80;75.70;;;;;;5075464;28;20040;-40
2023/06/14 12:10:16;;;;;;;3.28;2.03;;;24.90;75.70;;;;;;5074577;28;20391;-41
2023/06/14 12:12:42;;;;;;;3.20;2.20;;;25.00;74.10;;;;;;5073968;28;20494;-40
2023/06/14 12:15:11;;;;;;;3.05;1.77;;;24.90;74.20;;;;;;5074290;28;20036;-40
2023/06/14 12:17:41;;;;;;;4.15;2.08;;;25.00;74.50;;;;;;5073205;28;20428;-41
2023/06/14 12:20:16;;;;;;;3.83;2.13;;;25.10;73.20;;;;;;5072877;28;20560;-40
2023/06/14 12:22:57;;;;;;;3.80;1.95;;;25.00;73.30;;;;;;5075807;28;20159;-40
2023/06/14 12:25:27;;;;;;;5.38;2.30;;;25.10;72.60;;;;;;5056436;28;20081;-40
2023/06/14 12:27:58;;;;;;;3.55;1.95;;;25.20;73.40;;;;;;5073882;28;20040;-40
2023/06/14 12:30:26;;;;;;;3.50;1.90;;;25.20;72.30;;;;;;5073517;28;20048;-40
2023/06/14 12:32:52;;;;;;;6.38;2.70;;;25.10;72.90;;;;;;5073212;28;20047;-40
2023/06/14 12:35:18;;;;;;;4.05;2.50;;;25.10;74.10;;;;;;5072737;28;20115;-40
2023/06/14 12:37:45;;;;;;;4.38;2.13;;;25.10;73.30;;;;;;5064206;28;20055;-39
2023/06/14 12:40:12;;;;;;;3.95;2.15;;;25.00;73.40;;;;;;5066806;28;20040;-40
2023/06/14 12:42:38;;;;;;;5.13;2.15;;;24.90;73.10;;;;;;5073140;28;20105;-40
2023/06/14 12:45:04;;;;;;;3.45;2.10;;;24.80;73.60;;;;;;5073940;28;20489;-42
2023/06/14 12:47:29;;;;;;;5.97;2.55;;;24.90;74.80;;;;;;5074389;28;20060;-40
2023/06/14 12:49:55;;;;;;;6.20;2.50;;;24.90;75.00;;;;;;5073463;28;20081;-39